Pagina principale
METAR-TAF:

METAR-TAF

Aeroporti :

Cranfield, Inghilterra

latitudine: 52-04N, longitudine: 000-37W, altezza: 111 m

Osservazione

Il bollettino è stato emesso 57 minuti fa, alle 14:50 UTC
Vento 12 kt da est, variando fra nord-est e est/sud-est
Temperature 23°C
Umidità 36%
Pressione 1023 hPa
Visibilità 10 km o più
nessuna nube inferiore a 1500 m e nessun cumulonembo

METAR: EGTC 311450Z 08012KT 050V110 CAVOK 23/07 Q1023

Ora: 16:47 (15:47 UTC)

Previsione

Il bollettino è stato emesso 6 ore e 48 minuti fa, alle 08:59 UTC
Previsione valida dal 31 alle 09 UTC al 31 alle 16 UTC
Vento 10 kt da est
Visibilità 10 km o più
nessuna nube inferiore a 1500 m e nessun cumulonembo

TAF: EGTC 310859Z 3109/3116 09010KT CAVOK

Osservazioni e previsioni meteorologiche di più di 4000 aeroporti (messaggi METAR e TAF).

Le stazioni disponibili sono rappresentate dai dischi gialli e rossi sulla carta.

Puntare il mouse per vedere il nome della stazione.

Clicca sopra per visualizzare le osservazioni e previsioni meteorologiche.

Per cambiare la mappa : fare clic sui pulsanti verdi con una croce nera per ingrandire, il pulsante verde con un trattino per diminuire, o sulla freccia verde per le mappe adiacenti.


METAR-TAF: